Albee, South Dakota
Current Conditions -  °F | °C
As of 2:54 PM on Thursday 23 Oct 2014 (Local Time) from KDXX Reporting Station
Clear Clear  
Wind Chill: 73°   Ceiling: Unl
Heat Index: 73°   Visibility: 10mi
Dew Point: 36°   Wind: 9mph
Humidity: 25%   Direction: 240°WSW
Pressure: 29.93"   Gusts: NA
Location:  45.0205°N, 96.5453°W
Report Text: KDXX 231954Z AUTO 24008KT 10SM CLR 23/02 A2993 RMK AO2
Loading
Personal Weather Stations






























Interactive Weather Map New forecast layout! Learn more

10-Day Weather Forecast

Advertisements
Track Severe Weather on mobile